Time;durP1;ratioP1;P1;durP2;ratioP2;P2;SDS_P1;SDS_P2;PMS_P1;PMS_P2;Temp;Humidity;BMP_temperature;BMP_pressure;BME280_temperature;BME280_humidity;BME280_pressure;Samples;Min_cycle;Max_cycle;Signal;HPM_P1;HPM_P2
2021/01/01 00:01:48;;;;;;;88.72;47.88;;;;;;;;;;5026428;28;20202;-96
2021/01/01 00:04:14;;;;;;;89.00;44.25;;;;;;;;;;5023364;28;20296;-95
2021/01/01 00:06:49;;;;;;;96.47;47.28;;;;;;;;;;5011500;28;20293;-96
2021/01/01 00:09:19;;;;;;;90.47;45.13;;;;;;;;;;5008553;28;20206;-96
2021/01/01 00:11:50;;;;;;;84.15;43.17;;;;;;;;;;4987453;28;20273;-95
2021/01/01 00:14:19;;;;;;;79.20;42.85;;;;;;;;;;4999790;28;20207;-96
2021/01/01 00:16:45;;;;;;;80.38;40.38;;;;;;;;;;5008588;28;20283;-96
2021/01/01 00:19:11;;;;;;;74.57;37.95;;;;;;;;;;5002544;28;20220;-95
2021/01/01 00:21:43;;;;;;;63.90;34.20;;;;;;;;;;4986056;28;20236;-96
2021/01/01 00:24:15;;;;;;;77.22;37.20;;;;;;;;;;5005249;28;20203;-95
2021/01/01 00:33:04;;;;;;;74.95;39.13;;;;;;;;;;5015453;28;20203;-96
2021/01/01 00:35:30;;;;;;;81.40;39.80;;;;;;;;;;5033982;28;20209;-97
2021/01/01 00:38:08;;;;;;;72.20;38.80;;;;;;;;;;5026655;28;20272;-96
2021/01/01 00:43:27;;;;;;;26.88;16.00;;;;;;;;;;5027710;28;20201;-96
2021/01/01 00:45:53;;;;;;;17.67;11.70;;;;;;;;;;5024602;28;20242;-95
2021/01/01 00:51:29;;;;;;;12.77;8.60;;;;;;;;;;5010697;28;20565;-95
2021/01/01 00:53:56;;;;;;;14.63;10.02;;;;;;;;;;5020587;28;20214;-95
2021/01/01 00:56:23;;;;;;;14.75;8.55;;;;;;;;;;5005134;28;20214;-96
2021/01/01 00:58:50;;;;;;;14.82;9.65;;;;;;;;;;5003405;28;20314;-96
2021/01/01 01:01:33;;;;;;;14.60;9.60;;;;;;;;;;5014980;28;20231;-96
2021/01/01 01:03:59;;;;;;;21.35;11.63;;;;;;;;;;5029325;28;20205;-96
2021/01/01 01:15:45;;;;;;;28.20;16.67;;;;;;;;;;4922764;29;20201;-94
2021/01/01 01:18:11;;;;;;;26.60;16.85;;;;;;;;;;4926876;29;20284;-96
2021/01/01 01:20:39;;;;;;;24.67;15.57;;;;;;;;;;4972683;28;20209;-96
2021/01/01 01:39:18;;;;;;;30.52;15.70;;;;;;;;;;4779865;29;20701;-95
2021/01/01 01:54:18;;;;;;;24.90;14.35;;;;;;;;;;4736563;29;20272;-95
2021/01/01 01:56:45;;;;;;;21.17;12.18;;;;;;;;;;4983055;28;20237;-94
2021/01/01 01:59:11;;;;;;;17.70;11.52;;;;;;;;;;5085483;28;20806;-95
2021/01/01 02:01:38;;;;;;;15.35;10.02;;;;;;;;;;5072801;28;20229;-96
2021/01/01 02:04:04;;;;;;;13.68;9.90;;;;;;;;;;5064750;28;20235;-96
2021/01/01 02:06:30;;;;;;;21.05;11.13;;;;;;;;;;5062708;28;20228;-96
2021/01/01 02:12:39;;;;;;;20.15;11.27;;;;;;;;;;4987791;28;20239;-95
2021/01/01 02:15:36;;;;;;;16.35;9.52;;;;;;;;;;4982610;28;20789;-96
2021/01/01 02:55:44;;;;;;;12.32;8.30;;;;;;;;;;5010627;28;20212;-93
2021/01/01 03:00:47;;;;;;;13.93;8.77;;;;;;;;;;3710372;26;20263;-96
2021/01/01 03:06:28;;;;;;;12.60;8.63;;;;;;;;;;5076843;28;20288;-93
2021/01/01 03:08:54;;;;;;;38.03;16.70;;;;;;;;;;5044872;28;20204;-94
2021/01/01 03:11:21;;;;;;;72.18;23.63;;;;;;;;;;5061361;28;20210;-94
2021/01/01 03:13:47;;;;;;;82.20;28.73;;;;;;;;;;5047033;28;20300;-94
2021/01/01 03:16:13;;;;;;;83.97;29.17;;;;;;;;;;5044198;28;20213;-95
2021/01/01 03:18:39;;;;;;;68.03;29.27;;;;;;;;;;5048443;28;20462;-94
2021/01/01 03:21:15;;;;;;;70.05;27.30;;;;;;;;;;5062963;28;20501;-93
2021/01/01 03:23:41;;;;;;;33.10;18.30;;;;;;;;;;5057311;28;20208;-94
2021/01/01 03:26:07;;;;;;;47.35;21.67;;;;;;;;;;5062753;28;20248;-95
2021/01/01 03:28:34;;;;;;;35.95;18.42;;;;;;;;;;5062416;28;20266;-94
2021/01/01 03:31:01;;;;;;;32.85;19.90;;;;;;;;;;5080128;28;20218;-94
2021/01/01 03:33:28;;;;;;;43.53;21.33;;;;;;;;;;5083866;28;20198;-94
2021/01/01 03:35:54;;;;;;;37.53;21.42;;;;;;;;;;5048903;28;20216;-92
2021/01/01 03:38:21;;;;;;;31.10;18.55;;;;;;;;;;5041610;28;20286;-93
2021/01/01 03:40:48;;;;;;;34.28;19.38;;;;;;;;;;5050116;28;20219;-93
2021/01/01 03:43:14;;;;;;;33.90;18.73;;;;;;;;;;5043484;28;20206;-95
2021/01/01 03:45:41;;;;;;;34.95;18.73;;;;;;;;;;5043169;28;20216;-95
2021/01/01 03:50:51;;;;;;;39.75;21.50;;;;;;;;;;5054498;28;20226;-93
2021/01/01 03:53:18;;;;;;;34.70;19.80;;;;;;;;;;5043216;28;20204;-94
2021/01/01 03:55:46;;;;;;;38.17;19.33;;;;;;;;;;5043576;28;20672;-94
2021/01/01 03:58:12;;;;;;;31.08;17.10;;;;;;;;;;5055837;28;20211;-95
2021/01/01 04:00:38;;;;;;;25.20;14.25;;;;;;;;;;5062687;28;20607;-93
2021/01/01 04:03:05;;;;;;;22.83;13.25;;;;;;;;;;5049799;28;20212;-94
2021/01/01 04:05:31;;;;;;;23.63;13.48;;;;;;;;;;5043093;28;20210;-94
2021/01/01 04:08:02;;;;;;;29.90;14.10;;;;;;;;;;5046290;28;20208;-93
2021/01/01 04:10:28;;;;;;;21.17;12.70;;;;;;;;;;5062426;28;20294;-95
2021/01/01 04:12:57;;;;;;;26.83;11.25;;;;;;;;;;5058229;28;20242;-94
2021/01/01 04:15:23;;;;;;;19.33;11.48;;;;;;;;;;5062476;28;20210;-94
2021/01/01 04:17:49;;;;;;;15.43;10.13;;;;;;;;;;5065240;28;20204;-94
2021/01/01 04:20:17;;;;;;;16.08;8.95;;;;;;;;;;5064044;28;20307;-93
2021/01/01 04:22:43;;;;;;;11.98;7.93;;;;;;;;;;5066502;28;20208;-93
2021/01/01 04:25:09;;;;;;;12.18;8.23;;;;;;;;;;5050355;28;20212;-94
2021/01/01 04:27:44;;;;;;;13.13;7.68;;;;;;;;;;5052049;28;20941;-93
2021/01/01 04:41:31;;;;;;;12.13;7.45;;;;;;;;;;5017654;28;21611;-94
2021/01/01 04:43:58;;;;;;;12.50;7.53;;;;;;;;;;5006834;28;20221;-93
2021/01/01 04:46:24;;;;;;;14.75;8.95;;;;;;;;;;5007377;28;20224;-94
2021/01/01 04:55:00;;;;;;;13.95;8.43;;;;;;;;;;4889051;29;20810;-94
2021/01/01 04:57:32;;;;;;;15.57;9.68;;;;;;;;;;4955526;29;20211;-94
2021/01/01 04:59:58;;;;;;;21.27;11.80;;;;;;;;;;4965135;28;20291;-94
2021/01/01 05:08:32;;;;;;;20.38;11.27;;;;;;;;;;4893823;29;20241;-95
2021/01/01 05:11:05;;;;;;;19.90;11.50;;;;;;;;;;4995770;28;20206;-95
2021/01/01 05:13:34;;;;;;;24.90;11.90;;;;;;;;;;5005431;28;20229;-94
2021/01/01 05:16:00;;;;;;;39.22;14.25;;;;;;;;;;5022647;28;20687;-94
2021/01/01 05:18:27;;;;;;;59.25;21.02;;;;;;;;;;5025603;28;20208;-94
2021/01/01 05:20:55;;;;;;;177.93;32.35;;;;;;;;;;5011352;28;20210;-93
2021/01/01 05:23:28;;;;;;;195.63;34.78;;;;;;;;;;5007814;28;20203;-94
2021/01/01 05:26:14;;;;;;;321.05;39.55;;;;;;;;;;5020005;28;20216;-94
2021/01/01 05:28:55;;;;;;;207.73;29.33;;;;;;;;;;5036006;28;20193;-94
2021/01/01 05:31:22;;;;;;;277.48;32.95;;;;;;;;;;5026426;28;20295;-94
2021/01/01 05:33:52;;;;;;;320.75;30.50;;;;;;;;;;5025766;28;20215;-94
2021/01/01 05:36:27;;;;;;;218.40;27.73;;;;;;;;;;5017755;28;20296;-93
2021/01/01 05:38:53;;;;;;;80.60;17.83;;;;;;;;;;5005407;28;20237;-93
2021/01/01 05:41:28;;;;;;;28.10;14.15;;;;;;;;;;4999369;28;20300;-93
2021/01/01 05:44:05;;;;;;;26.60;12.52;;;;;;;;;;4985523;28;20206;-94
2021/01/01 05:46:31;;;;;;;37.42;15.43;;;;;;;;;;5000000;28;20229;-93
2021/01/01 05:48:59;;;;;;;77.28;18.90;;;;;;;;;;5001431;28;20205;-93
2021/01/01 05:51:25;;;;;;;60.08;19.27;;;;;;;;;;5004978;28;20267;-93
2021/01/01 05:53:51;;;;;;;59.83;17.85;;;;;;;;;;4989451;28;20277;-93
2021/01/01 05:56:18;;;;;;;55.78;17.83;;;;;;;;;;5003736;28;20210;-93
2021/01/01 05:58:45;;;;;;;40.55;16.02;;;;;;;;;;5000488;28;20232;-93
2021/01/01 06:01:11;;;;;;;54.92;15.70;;;;;;;;;;5004667;28;20206;-94
2021/01/01 06:03:38;;;;;;;43.38;15.30;;;;;;;;;;4999766;28;20381;-93
2021/01/01 06:06:04;;;;;;;31.55;15.13;;;;;;;;;;5004653;28;20221;-94
2021/01/01 06:08:37;;;;;;;19.10;11.93;;;;;;;;;;5005425;28;20216;-93
2021/01/01 06:14:20;;;;;;;;;;;;;;;;;;;;;
2021/01/01 06:17:22;;;;;;;25.65;15.43;;;;;;;;;;5004592;28;20197;-94
2021/01/01 06:19:54;;;;;;;88.82;23.88;;;;;;;;;;5001422;28;20678;-95
2021/01/01 06:22:22;;;;;;;271.27;33.90;;;;;;;;;;5004373;28;20209;-94
2021/01/01 06:24:53;;;;;;;219.10;29.45;;;;;;;;;;5004357;28;20232;-94
2021/01/01 06:27:21;;;;;;;189.55;30.05;;;;;;;;;;4986813;28;20230;-93
2021/01/01 06:30:02;;;;;;;230.73;31.42;;;;;;;;;;4985271;28;20222;-94
2021/01/01 06:32:31;;;;;;;134.48;26.30;;;;;;;;;;4993552;28;20242;-94
2021/01/01 06:35:11;;;;;;;299.33;31.70;;;;;;;;;;5004568;28;20202;-94
2021/01/01 06:37:39;;;;;;;183.90;28.88;;;;;;;;;;4995304;28;20221;-93
2021/01/01 06:40:07;;;;;;;247.55;32.15;;;;;;;;;;4985021;28;20240;-95
2021/01/01 06:42:53;;;;;;;231.20;26.50;;;;;;;;;;4984761;28;20607;-95
2021/01/01 06:45:35;;;;;;;179.27;23.80;;;;;;;;;;5004295;28;20230;-93
2021/01/01 06:48:02;;;;;;;233.32;27.42;;;;;;;;;;4998498;28;20390;-93
2021/01/01 06:50:28;;;;;;;207.50;28.63;;;;;;;;;;5003240;28;20211;-94
2021/01/01 06:53:01;;;;;;;125.15;19.27;;;;;;;;;;5001731;28;20211;-93
2021/01/01 06:55:30;;;;;;;210.07;25.50;;;;;;;;;;4981823;28;20277;-95
2021/01/01 06:57:56;;;;;;;205.73;27.30;;;;;;;;;;4985571;28;20210;-94
2021/01/01 07:00:37;;;;;;;141.05;24.30;;;;;;;;;;4997058;28;20220;-94
2021/01/01 07:03:25;;;;;;;192.32;32.72;;;;;;;;;;5002379;28;20732;-95
2021/01/01 07:05:51;;;;;;;222.85;32.13;;;;;;;;;;4986743;28;20218;-94
2021/01/01 07:08:32;;;;;;;168.05;32.50;;;;;;;;;;4986470;28;20219;-95
2021/01/01 07:10:58;;;;;;;260.10;34.13;;;;;;;;;;4993728;28;20244;-96
2021/01/01 07:13:25;;;;;;;224.60;34.17;;;;;;;;;;5005103;28;20194;-96
2021/01/01 07:15:53;;;;;;;177.18;30.75;;;;;;;;;;5002877;28;20218;-96
2021/01/01 07:18:21;;;;;;;137.02;29.02;;;;;;;;;;4987001;28;20290;-95
2021/01/01 07:23:27;;;;;;;183.93;34.65;;;;;;;;;;5003038;28;20411;-95
2021/01/01 07:25:54;;;;;;;181.25;31.90;;;;;;;;;;5004847;28;20338;-95
2021/01/01 07:28:22;;;;;;;139.88;28.48;;;;;;;;;;4989453;28;20634;-95
2021/01/01 07:30:48;;;;;;;130.00;28.60;;;;;;;;;;4987542;28;20204;-94
2021/01/01 07:33:20;;;;;;;112.85;26.63;;;;;;;;;;4997487;28;20216;-96
2021/01/01 07:35:50;;;;;;;108.95;25.08;;;;;;;;;;4987362;28;20206;-95
2021/01/01 07:38:19;;;;;;;124.50;24.40;;;;;;;;;;4991742;28;20274;-96
2021/01/01 07:40:46;;;;;;;70.85;20.40;;;;;;;;;;5015224;28;20371;-96
2021/01/01 07:43:12;;;;;;;97.60;23.40;;;;;;;;;;5024839;28;21110;-96
2021/01/01 07:45:39;;;;;;;114.63;24.13;;;;;;;;;;5010905;28;20269;-96
2021/01/01 07:48:05;;;;;;;180.73;26.95;;;;;;;;;;5021756;28;20455;-96
2021/01/01 07:50:32;;;;;;;89.53;25.30;;;;;;;;;;5008542;28;20244;-94
2021/01/01 07:53:03;;;;;;;133.93;22.13;;;;;;;;;;5013290;28;20277;-96
2021/01/01 07:55:32;;;;;;;135.65;20.73;;;;;;;;;;5008495;28;20213;-96
2021/01/01 07:58:00;;;;;;;146.18;21.63;;;;;;;;;;5017739;28;20952;-96
2021/01/01 08:00:29;;;;;;;120.03;17.45;;;;;;;;;;5024548;28;20208;-96
2021/01/01 08:05:55;;;;;;;88.70;17.92;;;;;;;;;;5029734;28;20210;-96
2021/01/01 08:08:23;;;;;;;125.40;18.58;;;;;;;;;;5069858;23;20236;-96
2021/01/01 08:10:50;;;;;;;129.25;22.38;;;;;;;;;;4994937;28;20220;-96
2021/01/01 08:13:16;;;;;;;100.72;21.73;;;;;;;;;;4995063;28;20231;-96
2021/01/01 08:15:44;;;;;;;121.55;21.02;;;;;;;;;;4983983;28;20186;-94
2021/01/01 08:18:11;;;;;;;74.53;18.85;;;;;;;;;;4978434;28;20240;-95
2021/01/01 08:20:37;;;;;;;65.03;18.38;;;;;;;;;;4982071;28;20229;-95
2021/01/01 08:23:08;;;;;;;87.60;18.23;;;;;;;;;;4991663;28;20690;-95
2021/01/01 08:25:36;;;;;;;68.85;19.30;;;;;;;;;;5006026;28;20202;-96
2021/01/01 08:28:03;;;;;;;69.00;18.83;;;;;;;;;;5000615;28;20232;-96
2021/01/01 08:30:40;;;;;;;72.95;21.38;;;;;;;;;;4985942;28;20216;-96
2021/01/01 08:33:16;;;;;;;85.03;28.10;;;;;;;;;;4974682;28;20693;-96
2021/01/01 08:35:42;;;;;;;61.50;26.10;;;;;;;;;;4983896;28;20266;-96
2021/01/01 08:38:23;;;;;;;77.20;23.80;;;;;;;;;;4989208;28;20243;-95
2021/01/01 08:41:08;;;;;;;58.58;24.50;;;;;;;;;;4985532;28;20253;-96
2021/01/01 08:43:50;;;;;;;;;;;;;;;;;;;;;
2021/01/01 08:46:22;;;;;;;78.83;25.60;;;;;;;;;;4987966;28;20224;-96
2021/01/01 08:48:56;;;;;;;48.70;23.27;;;;;;;;;;4984332;28;20586;-96
2021/01/01 08:51:38;;;;;;;38.65;21.50;;;;;;;;;;4985235;28;20215;-95
2021/01/01 08:54:05;;;;;;;51.65;22.20;;;;;;;;;;4987488;28;20215;-96
2021/01/01 08:56:40;;;;;;;42.42;21.60;;;;;;;;;;4988627;28;20212;-95
2021/01/01 09:02:41;;;;;;;37.75;17.90;;;;;;;;;;4886995;29;20242;-96
2021/01/01 09:05:14;;;;;;;55.25;22.05;;;;;;;;;;4938858;28;20285;-96
2021/01/01 09:07:43;;;;;;;54.45;23.77;;;;;;;;;;5045583;23;20232;-96
2021/01/01 09:10:17;;;;;;;50.67;21.52;;;;;;;;;;4953167;29;20238;-96
2021/01/01 09:12:44;;;;;;;47.65;20.55;;;;;;;;;;4974449;28;20295;-96
2021/01/01 09:15:11;;;;;;;44.97;21.45;;;;;;;;;;4987980;28;20205;-95
2021/01/01 09:17:37;;;;;;;46.87;21.07;;;;;;;;;;4969628;28;20281;-96
2021/01/01 09:20:08;;;;;;;36.93;20.00;;;;;;;;;;5026636;23;20515;-94
2021/01/01 09:22:43;;;;;;;48.40;22.75;;;;;;;;;;5073923;28;20458;-96
2021/01/01 09:34:02;;;;;;;74.63;23.00;;;;;;;;;;5030793;28;20451;-96
2021/01/01 09:36:50;;;;;;;59.25;20.52;;;;;;;;;;5021725;28;20524;-96
2021/01/01 09:39:19;;;;;;;45.33;19.17;;;;;;;;;;5030024;28;20216;-96
2021/01/01 09:41:49;;;;;;;88.30;21.73;;;;;;;;;;5032889;23;20499;-96
2021/01/01 09:44:17;;;;;;;48.72;21.25;;;;;;;;;;4994312;28;20473;-96
2021/01/01 09:46:45;;;;;;;37.67;18.40;;;;;;;;;;4990384;28;20245;-96
2021/01/01 09:49:14;;;;;;;30.30;18.50;;;;;;;;;;4992853;28;20512;-96
2021/01/01 09:51:41;;;;;;;35.23;18.97;;;;;;;;;;4990311;28;20439;-96
2021/01/01 09:54:07;;;;;;;35.90;19.35;;;;;;;;;;4973842;28;20492;-95
2021/01/01 09:56:34;;;;;;;32.63;18.20;;;;;;;;;;4988516;28;20221;-96
2021/01/01 09:59:01;;;;;;;43.17;22.13;;;;;;;;;;4993224;28;20490;-96
2021/01/01 10:01:28;;;;;;;48.90;24.67;;;;;;;;;;4977157;28;20470;-96
2021/01/01 10:06:20;;;;;;;42.75;22.75;;;;;;;;;;5110234;23;20497;-96
2021/01/01 10:14:14;;;;;;;64.23;28.00;;;;;;;;;;5039447;28;20456;-96
2021/01/01 10:16:43;;;;;;;44.03;22.97;;;;;;;;;;5027508;28;20518;-96
2021/01/01 10:19:10;;;;;;;33.63;21.33;;;;;;;;;;5039648;28;20482;-96
2021/01/01 10:21:37;;;;;;;42.73;20.80;;;;;;;;;;5025388;28;20455;-96
2021/01/01 10:24:17;;;;;;;40.07;20.40;;;;;;;;;;5030386;28;20463;-96
2021/01/01 10:26:47;;;;;;;39.40;21.93;;;;;;;;;;5047293;28;20501;-96
2021/01/01 10:29:13;;;;;;;35.00;21.17;;;;;;;;;;5045136;28;20443;-96
2021/01/01 10:31:39;;;;;;;45.13;23.83;;;;;;;;;;5039615;28;20463;-96
2021/01/01 10:34:05;;;;;;;39.70;23.10;;;;;;;;;;5038481;28;20469;-96
2021/01/01 10:36:32;;;;;;;35.00;20.10;;;;;;;;;;5042398;28;20463;-96
2021/01/01 10:39:00;;;;;;;33.13;18.77;;;;;;;;;;5048535;28;20506;-96
2021/01/01 10:41:26;;;;;;;35.13;22.57;;;;;;;;;;5038869;28;20450;-96
2021/01/01 10:43:52;;;;;;;36.23;20.57;;;;;;;;;;5045006;28;20462;-96
2021/01/01 10:46:19;;;;;;;33.93;20.43;;;;;;;;;;5042310;28;20468;-96
2021/01/01 10:48:45;;;;;;;33.97;20.73;;;;;;;;;;5047192;28;20459;-96
2021/01/01 10:51:20;;;;;;;39.27;23.00;;;;;;;;;;5049332;28;20443;-96
2021/01/01 10:53:46;;;;;;;31.83;19.87;;;;;;;;;;5033510;28;20522;-96
2021/01/01 10:56:20;;;;;;;36.90;21.13;;;;;;;;;;5042313;28;20879;-96
2021/01/01 10:58:46;;;;;;;33.90;20.67;;;;;;;;;;5025369;28;20456;-96
2021/01/01 11:01:12;;;;;;;39.37;23.30;;;;;;;;;;5021134;28;20470;-96
2021/01/01 11:03:38;;;;;;;42.00;23.17;;;;;;;;;;5027693;28;20461;-96
2021/01/01 11:06:05;;;;;;;47.17;27.63;;;;;;;;;;5036694;28;20486;-96
2021/01/01 11:08:31;;;;;;;39.00;24.43;;;;;;;;;;5040819;28;20483;-96
2021/01/01 11:10:57;;;;;;;37.00;22.37;;;;;;;;;;5039218;28;20537;-96
2021/01/01 11:13:24;;;;;;;37.17;22.60;;;;;;;;;;5041136;28;20455;-96
2021/01/01 12:24:47;;;;;;;49.23;32.23;;;;;;;;;;5011126;28;20502;-96
2021/01/01 12:27:17;;;;;;;55.13;34.57;;;;;;;;;;5026164;28;20502;-96
2021/01/01 12:29:43;;;;;;;50.00;31.77;;;;;;;;;;5038207;28;20764;-96
2021/01/01 12:32:09;;;;;;;49.00;33.33;;;;;;;;;;5036199;28;20467;-96
2021/01/01 12:34:36;;;;;;;53.17;32.80;;;;;;;;;;5037504;28;20459;-96
2021/01/01 12:37:02;;;;;;;58.90;36.20;;;;;;;;;;5036339;28;20459;-95
2021/01/01 12:39:29;;;;;;;62.17;38.80;;;;;;;;;;5027337;28;20454;-96
2021/01/01 12:41:55;;;;;;;67.53;42.47;;;;;;;;;;5043684;28;20478;-95
2021/01/01 12:44:22;;;;;;;69.73;44.50;;;;;;;;;;5041038;28;20447;-96
2021/01/01 12:46:50;;;;;;;71.27;43.27;;;;;;;;;;5044342;28;20474;-96
2021/01/01 12:49:16;;;;;;;70.13;45.90;;;;;;;;;;5037259;28;20466;-95
2021/01/01 12:51:43;;;;;;;67.23;43.33;;;;;;;;;;5040969;28;20474;-95
2021/01/01 12:54:10;;;;;;;70.97;43.93;;;;;;;;;;5044841;28;20467;-96
2021/01/01 12:56:44;;;;;;;58.70;39.90;;;;;;;;;;5052247;28;20448;-96
2021/01/01 12:59:10;;;;;;;57.60;38.93;;;;;;;;;;5051419;28;20459;-96
2021/01/01 13:01:37;;;;;;;62.40;42.20;;;;;;;;;;5017804;28;20502;-96
2021/01/01 13:04:03;;;;;;;63.97;42.40;;;;;;;;;;5042108;28;20451;-96
2021/01/01 13:06:29;;;;;;;66.00;42.60;;;;;;;;;;5023985;28;20481;-95
2021/01/01 13:08:57;;;;;;;65.67;44.30;;;;;;;;;;5022767;28;20484;-96
2021/01/01 13:11:24;;;;;;;67.77;44.10;;;;;;;;;;5035559;28;20476;-95
2021/01/01 13:13:58;;;;;;;63.97;43.23;;;;;;;;;;5045578;28;20448;-97
2021/01/01 13:16:29;;;;;;;68.03;42.67;;;;;;;;;;5031830;28;20468;-96
2021/01/01 13:18:56;;;;;;;65.03;44.27;;;;;;;;;;5040731;23;20486;-96
2021/01/01 13:21:27;;;;;;;60.60;44.20;;;;;;;;;;5024969;28;20999;-96
2021/01/01 13:23:53;;;;;;;73.27;44.57;;;;;;;;;;5015048;28;20476;-96
2021/01/01 13:26:21;;;;;;;65.27;43.40;;;;;;;;;;5016603;28;20485;-96
2021/01/01 13:28:50;;;;;;;60.03;42.77;;;;;;;;;;5023298;28;20479;-96
2021/01/01 13:31:44;;;;;;;68.40;43.20;;;;;;;;;;5025996;28;20464;-96
2021/01/01 13:34:11;;;;;;;61.93;43.30;;;;;;;;;;5018789;28;20478;-96
2021/01/01 13:36:37;;;;;;;56.47;41.97;;;;;;;;;;5012037;28;20473;-96
2021/01/01 13:39:04;;;;;;;60.40;40.90;;;;;;;;;;5020660;28;20488;-96
2021/01/01 13:41:31;;;;;;;55.03;41.13;;;;;;;;;;5023509;28;20477;-96
2021/01/01 13:43:57;;;;;;;58.60;40.47;;;;;;;;;;5025379;28;20542;-96
2021/01/01 13:46:24;;;;;;;53.23;39.47;;;;;;;;;;5025060;28;20458;-96
2021/01/01 13:48:51;;;;;;;55.60;39.83;;;;;;;;;;5020616;28;20554;-96
2021/01/01 13:51:17;;;;;;;57.93;38.53;;;;;;;;;;5026240;28;20534;-96
2021/01/01 13:53:43;;;;;;;54.67;39.87;;;;;;;;;;5024883;28;20456;-96
2021/01/01 13:56:09;;;;;;;57.60;39.90;;;;;;;;;;5022526;28;21304;-96
2021/01/01 13:58:36;;;;;;;58.33;39.00;;;;;;;;;;5022297;28;20451;-96
2021/01/01 14:01:02;;;;;;;52.17;37.67;;;;;;;;;;5022784;28;20458;-96
2021/01/01 14:03:28;;;;;;;49.83;37.47;;;;;;;;;;5008644;28;20546;-96
2021/01/01 14:05:55;;;;;;;38.60;27.80;;;;;;;;;;5025445;28;20469;-96
2021/01/01 14:08:23;;;;;;;37.83;27.20;;;;;;;;;;5027009;28;20559;-96
2021/01/01 14:10:50;;;;;;;20.53;17.33;;;;;;;;;;5025292;28;20467;-96
2021/01/01 14:13:18;;;;;;;24.13;18.33;;;;;;;;;;5025510;28;20522;-96
2021/01/01 14:15:45;;;;;;;24.30;17.50;;;;;;;;;;5025531;28;20482;-96
2021/01/01 14:18:12;;;;;;;22.37;15.10;;;;;;;;;;5029930;28;20514;-96
2021/01/01 14:20:42;;;;;;;18.37;14.50;;;;;;;;;;5025694;28;20454;-96
2021/01/01 14:23:08;;;;;;;19.17;12.90;;;;;;;;;;5025080;28;20478;-96
2021/01/01 14:25:38;;;;;;;19.27;11.50;;;;;;;;;;5019995;28;20476;-96
2021/01/01 14:28:06;;;;;;;13.97;10.53;;;;;;;;;;5023181;28;20493;-96
2021/01/01 14:30:36;;;;;;;19.53;11.53;;;;;;;;;;5012413;28;20467;-96
2021/01/01 14:33:09;;;;;;;15.67;11.53;;;;;;;;;;5000243;28;20581;-96
2021/01/01 14:35:40;;;;;;;6.90;5.70;;;;;;;;;;5033827;28;20470;-96
2021/01/01 14:38:20;;;;;;;6.43;4.83;;;;;;;;;;5033521;28;20484;-96
2021/01/01 14:40:52;;;;;;;8.40;4.10;;;;;;;;;;5047651;23;20492;-96
2021/01/01 14:43:19;;;;;;;4.57;4.00;;;;;;;;;;5018940;28;22826;-96
2021/01/01 14:45:56;;;;;;;7.37;5.50;;;;;;;;;;5020079;28;20452;-96
2021/01/01 14:48:23;;;;;;;8.07;5.70;;;;;;;;;;5007280;28;20501;-96
2021/01/01 14:50:49;;;;;;;10.23;6.17;;;;;;;;;;5023965;28;20451;-96
2021/01/01 14:53:17;;;;;;;9.57;5.57;;;;;;;;;;5025965;28;20556;-96
2021/01/01 14:55:43;;;;;;;4.87;4.40;;;;;;;;;;5024239;28;20459;-96
2021/01/01 14:58:09;;;;;;;5.30;4.10;;;;;;;;;;5023881;28;20464;-94
2021/01/01 15:00:35;;;;;;;5.30;4.23;;;;;;;;;;5018688;28;20459;-96
2021/01/01 15:03:01;;;;;;;6.50;4.27;;;;;;;;;;5020096;28;21083;-95
2021/01/01 15:05:28;;;;;;;5.70;4.47;;;;;;;;;;5021993;28;20547;-95
2021/01/01 15:07:56;;;;;;;4.70;4.20;;;;;;;;;;5025524;28;20487;-96
2021/01/01 15:10:28;;;;;;;5.47;4.20;;;;;;;;;;5061774;22;20498;-96
2021/01/01 15:12:55;;;;;;;9.93;5.20;;;;;;;;;;5035396;28;20451;-96
2021/01/01 15:15:21;;;;;;;13.17;8.63;;;;;;;;;;5024712;28;20447;-96
2021/01/01 15:17:49;;;;;;;9.00;7.27;;;;;;;;;;5034415;28;20469;-96
2021/01/01 15:20:22;;;;;;;8.23;6.90;;;;;;;;;;5031893;28;20503;-96
2021/01/01 15:22:52;;;;;;;13.13;8.73;;;;;;;;;;5033084;28;20518;-96
2021/01/01 15:25:20;;;;;;;11.13;7.77;;;;;;;;;;5031482;28;20459;-96
2021/01/01 15:27:46;;;;;;;13.50;8.53;;;;;;;;;;5038138;28;20546;-96
2021/01/01 15:30:14;;;;;;;17.07;11.00;;;;;;;;;;5048985;28;20422;-96
2021/01/01 15:38:12;;;;;;;17.50;12.67;;;;;;;;;;5102700;23;20481;-96
2021/01/01 15:40:48;;;;;;;16.03;12.00;;;;;;;;;;5066870;28;20472;-96
2021/01/01 15:54:45;;;;;;;28.17;17.63;;;;;;;;;;5048969;28;20462;-96
2021/01/01 15:57:37;;;;;;;22.93;15.03;;;;;;;;;;4995092;28;20487;-96
2021/01/01 16:21:29;;;;;;;16.90;12.03;;;;;;;;;;5001630;23;20527;-96
2021/01/01 17:06:07;;;;;;;11.80;7.45;;;;;;;;;;5141099;22;20360;-96
2021/01/01 17:19:45;;;;;;;35.92;20.77;;;;;;;;;;5019704;28;20250;-96
2021/01/01 17:55:46;;;;;;;10.68;7.55;;;;;;;;;;5011985;28;20230;-96
2021/01/01 17:58:13;;;;;;;10.55;6.65;;;;;;;;;;5017089;28;20243;-96
2021/01/01 18:00:46;;;;;;;14.52;8.40;;;;;;;;;;5008177;28;20213;-96
2021/01/01 18:03:12;;;;;;;15.70;10.30;;;;;;;;;;5009460;28;20220;-96
2021/01/01 18:05:39;;;;;;;9.73;7.30;;;;;;;;;;5007215;28;20277;-96
2021/01/01 19:01:53;;;;;;;46.70;29.35;;;;;;;;;;5022889;28;20221;-96
2021/01/01 19:13:58;;;;;;;51.65;29.83;;;;;;;;;;4911530;28;20215;-96
2021/01/01 19:16:29;;;;;;;37.40;25.75;;;;;;;;;;4994601;28;20268;-96
2021/01/01 19:19:02;;;;;;;36.58;23.50;;;;;;;;;;4995390;28;20213;-96
2021/01/01 19:24:24;;;;;;;27.95;21.33;;;;;;;;;;5193551;23;20261;-96
2021/01/01 19:26:58;;;;;;;36.22;24.63;;;;;;;;;;5006487;28;20213;-96
2021/01/01 19:29:28;;;;;;;36.55;25.00;;;;;;;;;;5006702;28;20249;-96
2021/01/01 19:31:55;;;;;;;29.98;20.98;;;;;;;;;;5012521;28;20229;-96
2021/01/01 19:34:42;;;;;;;34.72;21.45;;;;;;;;;;5003017;28;20230;-96
2021/01/01 19:37:46;;;;;;;33.67;21.50;;;;;;;;;;4995990;28;20213;-96
2021/01/01 20:32:50;;;;;;;15.52;9.35;;;;;;;;;;5098543;23;20212;-96
2021/01/01 22:10:31;;;;;;;26.60;17.70;;;;;;;;;;5877459;23;20271;-96
2021/01/01 22:16:22;;;;;;;33.97;17.52;;;;;;;;;;5163392;23;20260;-96
